Pagina principale
METAR-TAF:

METAR-TAF

Aeroporti :

Aeroporto di Malabo

Malabo, Guinea Equatoriale

latitudine: 03-45-18N, longitudine: 08-42-31E, altezza: 23 m

Osservazione

Il bollettino è stato emesso 55 minuti fa, alle 01:00 UTC
Vento calmo
Temperature 24°C
Pressione 1012 hPa
Visibilità 10 km o più
Poco nuvoloso ad un'altezza di 1000 ft

METAR: FGSL 310100Z 00000KT 9999 FEW010 24/// Q1012 NOSIG

Ora: 02:55 (01:55 UTC)

Previsione

Il bollettino è stato emesso 2 ore e 55 minuti fa, alle 23:00 UTC
Previsione valida dal 31 alle 00 UTC al 01 alle 06 UTC
Vento 6 kt da sud-ovest
Visibilità 10 km o più
Nubi sparse ad un'altezza di 1000 ft
Temporaneamente
dal 31 alle 02 UTC al 31 alle 10 UTC
Nuvoloso ad un'altezza di 1000 ft
Poco nuvoloso ad un'altezza di 2000 ft, Cumulonembo.
temporale

TAF: FGSL 302300Z 3100/0106 22006KT 9999 SCT010 TEMPO 3102/3110 TS BKN010 FEW020CB

Osservazioni e previsioni meteorologiche di più di 4000 aeroporti (messaggi METAR e TAF).

Le stazioni disponibili sono rappresentate dai dischi gialli e rossi sulla carta.

Puntare il mouse per vedere il nome della stazione.

Clicca sopra per visualizzare le osservazioni e previsioni meteorologiche.

Per cambiare la mappa : fare clic sui pulsanti verdi con una croce nera per ingrandire, il pulsante verde con un trattino per diminuire, o sulla freccia verde per le mappe adiacenti.


METAR-TAF: